Time;durP1;ratioP1;P1;durP2;ratioP2;P2;SDS_P1;SDS_P2;PMS_P1;PMS_P2;Temp;Humidity;BMP_temperature;BMP_pressure;BME280_temperature;BME280_humidity;BME280_pressure;Samples;Min_cycle;Max_cycle;Signal;HPM_P1;HPM_P2
2023/09/18 00:00:12;;;;;;;3.10;2.80;;;;;;;22.00;55.33;100667.47;5111881;28;20030;-74
2023/09/18 00:02:38;;;;;;;2.75;2.50;;;;;;;22.00;55.42;100667.47;5118728;28;20104;-74
2023/09/18 00:05:04;;;;;;;3.58;2.95;;;;;;;21.82;55.35;100640.88;5103851;28;20039;-74
2023/09/18 00:07:29;;;;;;;3.78;3.13;;;;;;;21.99;55.82;100656.84;5101283;28;20028;-74
2023/09/18 00:09:54;;;;;;;3.17;2.83;;;;;;;21.94;55.12;100644.72;5119474;28;20044;-74
2023/09/18 00:12:19;;;;;;;3.03;2.72;;;;;;;21.85;55.36;100618.81;5108016;28;20024;-74
2023/09/18 00:14:48;;;;;;;3.10;2.80;;;;;;;21.91;55.49;100617.19;5120621;28;20070;-74
2023/09/18 00:17:14;;;;;;;3.45;2.95;;;;;;;21.98;55.41;100626.22;5109921;28;20020;-74
2023/09/18 00:19:39;;;;;;;3.90;2.90;;;;;;;21.87;55.35;100608.63;5106727;28;20032;-74
2023/09/18 00:22:04;;;;;;;3.25;2.95;;;;;;;21.85;55.37;100597.19;5115561;28;20020;-74
2023/09/18 00:24:29;;;;;;;3.55;3.15;;;;;;;21.96;55.52;100621.03;5110689;28;20129;-74
2023/09/18 00:26:55;;;;;;;3.47;3.15;;;;;;;21.95;55.69;100613.91;5104433;28;20028;-74
2023/09/18 00:29:20;;;;;;;3.83;3.13;;;;;;;21.96;55.45;100614.75;5117531;28;20058;-74
2023/09/18 00:31:46;;;;;;;4.03;3.35;;;;;;;21.95;55.49;100602.25;5109752;28;20028;-74
2023/09/18 00:34:11;;;;;;;3.30;3.00;;;;;;;21.66;55.44;100552.69;5107635;28;20047;-74
2023/09/18 00:36:36;;;;;;;3.38;2.78;;;;;;;21.83;55.33;100568.63;5116570;28;20065;-74
2023/09/18 00:39:01;;;;;;;3.88;3.00;;;;;;;21.94;55.71;100587.88;5109439;28;20578;-74
2023/09/18 00:41:27;;;;;;;3.15;2.85;;;;;;;21.77;55.58;100542.34;5108059;28;20035;-74
2023/09/18 00:43:52;;;;;;;2.60;2.40;;;;;;;21.94;55.44;100570.81;5117511;28;20047;-74
2023/09/18 00:46:18;;;;;;;3.40;3.10;;;;;;;21.88;55.29;100558.91;5111712;28;20024;-74
2023/09/18 00:48:43;;;;;;;2.88;2.60;;;;;;;21.89;55.41;100554.31;5115236;28;20492;-74
2023/09/18 00:51:08;;;;;;;2.97;2.67;;;;;;;21.93;55.54;100559.13;5119088;28;20032;-74
2023/09/18 00:53:34;;;;;;;2.85;2.55;;;;;;;21.93;55.64;100555.59;5110415;28;20094;-74
2023/09/18 00:56:00;;;;;;;3.15;2.85;;;;;;;21.77;55.52;100535.06;5116274;28;20031;-74
2023/09/18 00:58:26;;;;;;;3.42;2.75;;;;;;;21.89;55.36;100552.44;5116526;28;20043;-74
2023/09/18 01:00:51;;;;;;;3.45;3.08;;;;;;;21.92;55.49;100553.94;5108518;28;20016;-74
2023/09/18 01:03:18;;;;;;;3.50;3.20;;;;;;;21.91;55.54;100554.94;5119958;28;20081;-74
2023/09/18 01:05:44;;;;;;;3.53;3.22;;;;;;;21.88;55.66;100539.13;5115918;28;20024;-74
2023/09/18 01:08:10;;;;;;;3.30;3.00;;;;;;;21.92;55.64;100538.53;5109307;28;20084;-74
2023/09/18 01:10:52;;;;;;;2.92;2.63;;;;;;;21.88;55.44;100522.88;5107176;28;20020;-74
2023/09/18 01:13:28;;;;;;;3.22;2.92;;;;;;;21.83;55.58;100509.09;5108073;28;20024;-74
2023/09/18 01:16:17;;;;;;;2.80;2.50;;;;;;;21.46;55.49;100455.13;5110000;28;20020;-74
2023/09/18 01:18:50;;;;;;;4.18;3.08;;;;;;;21.90;55.65;100513.50;5107240;28;20298;-74
2023/09/18 01:21:16;;;;;;;2.58;2.38;;;;;;;21.90;55.40;100508.09;5108581;28;20028;-74
2023/09/18 01:23:42;;;;;;;2.92;2.65;;;;;;;21.86;55.38;100497.88;5111920;28;20024;-74
2023/09/18 01:26:07;;;;;;;3.25;2.95;;;;;;;21.70;55.68;100469.25;5108974;28;20105;-74
2023/09/18 01:28:33;;;;;;;3.17;2.88;;;;;;;21.78;55.58;100476.38;5092972;28;20024;-74
2023/09/18 01:30:58;;;;;;;3.50;2.72;;;;;;;21.90;55.56;100499.16;5110234;28;20099;-74
2023/09/18 01:33:24;;;;;;;3.58;3.10;;;;;;;21.87;55.48;100494.97;5110417;28;20034;-74
2023/09/18 01:35:51;;;;;;;2.92;2.60;;;;;;;21.90;55.41;100485.63;5110017;28;20038;-74
2023/09/18 01:38:17;;;;;;;4.38;2.90;;;;;;;21.89;55.65;100479.38;5109682;28;20026;-74
2023/09/18 01:40:43;;;;;;;2.90;2.63;;;;;;;21.89;55.56;100476.66;5109718;28;20024;-74
2023/09/18 01:43:08;;;;;;;3.67;3.05;;;;;;;21.83;55.63;100466.63;5105553;28;20038;-74
2023/09/18 01:45:34;;;;;;;3.13;2.67;;;;;;;21.89;55.76;100470.41;5116539;28;20028;-73
2023/09/18 01:47:59;;;;;;;3.17;2.88;;;;;;;21.69;55.50;100427.00;5100395;28;20020;-74
2023/09/18 01:50:24;;;;;;;3.70;3.33;;;;;;;21.61;55.43;100405.50;5112832;28;20484;-74
2023/09/18 01:52:49;;;;;;;2.85;2.55;;;;;;;21.89;55.65;100449.59;5111868;28;20031;-74
2023/09/18 01:55:15;;;;;;;3.95;2.95;;;;;;;21.89;55.72;100446.06;5112202;28;20035;-75
2023/09/18 01:57:42;;;;;;;3.38;3.08;;;;;;;21.84;55.78;100433.13;5117337;28;20046;-74
2023/09/18 02:00:08;;;;;;;3.22;2.80;;;;;;;21.67;55.58;100399.31;5114270;28;20012;-74
2023/09/18 02:02:35;;;;;;;3.10;2.80;;;;;;;21.88;55.63;100428.16;5107003;28;20031;-74
2023/09/18 02:05:00;;;;;;;3.58;3.17;;;;;;;21.70;55.48;100401.59;5115074;28;20036;-74
2023/09/18 02:07:26;;;;;;;3.20;2.90;;;;;;;21.55;55.66;100377.38;5120567;28;20036;-74
2023/09/18 02:09:51;;;;;;;3.17;2.88;;;;;;;21.83;55.42;100419.78;5105917;28;20048;-74
2023/09/18 02:12:17;;;;;;;3.80;3.00;;;;;;;21.80;55.62;100412.91;5122915;28;20050;-74
2023/09/18 02:14:44;;;;;;;3.53;3.22;;;;;;;21.87;55.61;100421.88;5117242;27;20081;-74
2023/09/18 02:17:09;;;;;;;3.10;2.80;;;;;;;21.82;55.52;100408.13;5116035;28;20034;-74
2023/09/18 02:19:35;;;;;;;3.38;3.08;;;;;;;21.86;55.55;100411.25;5116338;28;20016;-74
2023/09/18 02:22:00;;;;;;;3.08;2.78;;;;;;;21.86;55.75;100414.81;5112370;28;20028;-74
2023/09/18 02:24:25;;;;;;;3.38;3.00;;;;;;;21.63;55.77;100373.69;5109905;28;20484;-74
2023/09/18 02:26:51;;;;;;;3.75;2.90;;;;;;;21.86;55.92;100420.22;5121236;28;20026;-74
2023/09/18 02:29:16;;;;;;;3.30;2.80;;;;;;;21.86;55.68;100411.25;5111132;28;20099;-74
2023/09/18 02:31:42;;;;;;;3.17;2.67;;;;;;;21.85;55.77;100409.59;5110470;28;20080;-74
2023/09/18 02:34:08;;;;;;;3.28;2.92;;;;;;;21.79;55.53;100389.59;5101879;28;20074;-74
2023/09/18 02:36:34;;;;;;;3.45;2.97;;;;;;;21.85;55.85;100399.59;5108008;28;20044;-74
2023/09/18 02:38:59;;;;;;;3.20;2.90;;;;;;;21.85;55.66;100405.03;5113001;28;20022;-74
2023/09/18 02:41:24;;;;;;;3.13;2.80;;;;;;;21.65;55.66;100371.59;5121372;28;20026;-74
2023/09/18 02:43:50;;;;;;;3.70;2.53;;;;;;;21.85;55.71;100396.06;5108162;28;20627;-74
2023/09/18 02:46:15;;;;;;;3.40;3.10;;;;;;;21.84;55.83;100395.25;5103671;28;20034;-74
2023/09/18 02:48:40;;;;;;;3.67;2.70;;;;;;;21.84;55.77;100392.53;5115510;28;20028;-74
2023/09/18 02:51:06;;;;;;;3.35;2.90;;;;;;;21.85;55.65;100383.38;5105726;28;20109;-74
2023/09/18 02:53:31;;;;;;;2.80;2.50;;;;;;;21.64;55.42;100353.72;5118451;28;20024;-74
2023/09/18 02:55:58;;;;;;;3.33;2.83;;;;;;;21.61;55.87;100330.59;5115106;28;20111;-74
2023/09/18 02:58:25;;;;;;;4.45;3.00;;;;;;;21.84;55.75;100361.94;5106813;28;20023;-74
2023/09/18 03:00:52;;;;;;;3.28;2.78;;;;;;;21.84;55.82;100357.34;5102262;28;20027;-74
2023/09/18 03:03:18;;;;;;;3.38;3.00;;;;;;;21.41;55.76;100286.41;5109625;28;20024;-74
2023/09/18 03:05:44;;;;;;;2.95;2.50;;;;;;;21.63;55.63;100317.72;5109147;28;20043;-74
2023/09/18 03:08:10;;;;;;;2.95;2.65;;;;;;;21.84;55.59;100338.41;5116163;28;20059;-74
2023/09/18 03:10:37;;;;;;;3.10;2.80;;;;;;;21.62;55.87;100291.69;5108139;28;20062;-74
2023/09/18 03:13:03;;;;;;;3.17;2.88;;;;;;;21.64;55.73;100291.47;5112555;28;20040;-74
2023/09/18 03:15:29;;;;;;;3.10;2.72;;;;;;;21.70;55.76;100288.78;5117828;27;20035;-74
2023/09/18 03:17:55;;;;;;;3.38;3.05;;;;;;;21.83;55.69;100303.41;5103215;28;20020;-74
2023/09/18 03:20:28;;;;;;;2.92;2.60;;;;;;;21.83;55.77;100300.69;5106071;28;20022;-74
2023/09/18 03:22:55;;;;;;;3.58;2.88;;;;;;;21.73;55.58;100271.31;5104977;28;20032;-74
2023/09/18 03:25:24;;;;;;;4.15;2.72;;;;;;;21.79;55.69;100265.13;5106230;28;20049;-74
2023/09/18 03:27:53;;;;;;;3.63;3.00;;;;;;;21.79;55.76;100251.59;5104909;28;20028;-74
2023/09/18 03:30:20;;;;;;;5.28;2.88;;;;;;;21.70;55.73;100223.03;5105063;28;20032;-74
2023/09/18 03:32:48;;;;;;;3.05;2.75;;;;;;;21.63;55.52;100211.38;5107804;28;20095;-74
2023/09/18 03:35:19;;;;;;;3.10;2.80;;;;;;;21.81;55.75;100233.25;5088408;28;20032;-74
2023/09/18 03:37:45;;;;;;;3.55;3.05;;;;;;;21.73;55.66;100233.44;5106606;28;20036;-74
2023/09/18 03:40:11;;;;;;;3.30;2.90;;;;;;;21.74;55.69;100221.56;5122062;28;20016;-74
2023/09/18 03:42:36;;;;;;;3.75;3.20;;;;;;;21.59;55.73;100196.56;5106667;28;20063;-74
2023/09/18 03:45:03;;;;;;;3.28;2.97;;;;;;;21.81;55.78;100227.03;5105970;28;20047;-74
2023/09/18 03:47:28;;;;;;;3.00;2.70;;;;;;;21.65;55.83;100193.03;5121467;28;20032;-74
2023/09/18 03:49:53;;;;;;;2.65;2.45;;;;;;;21.80;55.91;100220.78;5109036;28;20052;-74
2023/09/18 03:52:19;;;;;;;3.50;3.03;;;;;;;21.60;55.61;100192.81;5107969;28;20077;-74
2023/09/18 03:54:44;;;;;;;3.85;2.80;;;;;;;21.58;55.88;100186.78;5111016;28;20053;-74
2023/09/18 03:57:09;;;;;;;3.05;2.55;;;;;;;21.62;55.74;100188.91;5112233;28;20421;-74
2023/09/18 03:59:34;;;;;;;3.63;3.17;;;;;;;21.80;55.67;100217.25;5108032;28;20035;-74
2023/09/18 04:02:00;;;;;;;3.28;2.97;;;;;;;21.68;55.63;100195.34;5111373;28;20020;-74
2023/09/18 04:04:25;;;;;;;3.30;2.80;;;;;;;21.79;55.88;100219.13;5118906;28;20101;-74
2023/09/18 04:06:50;;;;;;;4.13;2.92;;;;;;;21.79;55.88;100211.00;5108226;28;20031;-74
2023/09/18 04:09:15;;;;;;;3.10;2.58;;;;;;;21.60;56.02;100177.44;5111600;28;20068;-74
2023/09/18 04:11:41;;;;;;;3.92;2.90;;;;;;;21.80;55.97;100214.53;5120141;28;20036;-74
2023/09/18 04:14:06;;;;;;;3.10;2.70;;;;;;;21.79;55.91;100205.59;5117766;28;20380;-74
2023/09/18 04:16:35;;;;;;;4.00;3.10;;;;;;;21.79;55.99;100205.59;5095395;28;20035;-74
2023/09/18 04:19:00;;;;;;;3.47;3.10;;;;;;;21.65;55.86;100190.34;5118562;28;20028;-74
2023/09/18 04:21:25;;;;;;;3.35;3.05;;;;;;;21.74;55.58;100202.63;5114011;28;20868;-74
2023/09/18 04:23:55;;;;;;;3.35;3.05;;;;;;;21.64;55.85;100200.34;5122006;28;20028;-74
2023/09/18 04:26:21;;;;;;;3.10;2.80;;;;;;;21.72;55.77;100207.44;5113176;28;20055;-74
2023/09/18 04:28:46;;;;;;;3.08;2.78;;;;;;;21.72;55.81;100212.84;5113939;28;20024;-74
2023/09/18 04:31:12;;;;;;;3.10;2.75;;;;;;;21.76;56.13;100224.09;5123071;28;20072;-74
2023/09/18 04:33:37;;;;;;;3.50;3.20;;;;;;;21.77;56.02;100226.59;5110661;28;20032;-74
2023/09/18 04:36:02;;;;;;;3.30;3.00;;;;;;;21.49;56.02;100190.69;5115163;28;20032;-74
2023/09/18 04:38:28;;;;;;;2.58;2.38;;;;;;;21.68;55.97;100206.16;5115694;28;20028;-73
2023/09/18 04:41:00;;;;;;;3.10;2.80;;;;;;;21.77;56.15;100213.06;5115042;28;20031;-74
2023/09/18 04:43:26;;;;;;;3.10;2.80;;;;;;;21.71;55.93;100201.19;5119056;28;20107;-74
2023/09/18 04:45:51;;;;;;;3.28;2.97;;;;;;;21.78;56.12;100220.13;5106911;28;20015;-74
2023/09/18 04:48:16;;;;;;;3.45;3.03;;;;;;;21.62;55.94;100190.75;5110217;28;20085;-74
2023/09/18 04:50:43;;;;;;;3.30;3.00;;;;;;;21.67;55.94;100170.16;5123178;28;20032;-74
2023/09/18 04:53:08;;;;;;;3.33;2.72;;;;;;;21.77;56.14;100172.47;5112778;28;20031;-74
2023/09/18 04:55:34;;;;;;;3.35;3.05;;;;;;;21.67;55.95;100151.22;5112127;28;20020;-74
2023/09/18 04:57:59;;;;;;;3.25;2.95;;;;;;;21.63;55.81;100133.75;5118008;28;20026;-74
2023/09/18 05:00:26;;;;;;;2.70;2.50;;;;;;;21.70;55.93;100141.84;5115392;28;20054;-74
2023/09/18 05:02:51;;;;;;;4.28;3.28;;;;;;;21.15;56.02;100041.03;5118433;28;20020;-74
2023/09/18 05:05:17;;;;;;;3.42;3.05;;;;;;;21.76;56.12;100146.47;5119189;28;20031;-74
2023/09/18 05:07:43;;;;;;;3.15;2.85;;;;;;;21.62;55.99;100121.25;5110905;28;20028;-74
2023/09/18 05:10:09;;;;;;;3.20;2.90;;;;;;;21.48;56.06;100099.78;5118542;28;20051;-74
2023/09/18 05:12:34;;;;;;;3.40;2.90;;;;;;;21.53;56.05;100118.94;5106525;28;20035;-74
2023/09/18 05:15:00;;;;;;;3.25;2.95;;;;;;;21.46;56.10;100119.78;5113410;27;20098;-74
2023/09/18 05:17:46;;;;;;;3.10;2.80;;;;;;;21.75;56.21;100176.41;5117642;28;20028;-74
2023/09/18 05:20:16;;;;;;;3.65;3.17;;;;;;;21.57;55.95;100153.47;5113396;28;20020;-74
2023/09/18 05:22:42;;;;;;;3.70;2.70;;;;;;;21.57;56.12;100161.59;5109055;28;20032;-74
2023/09/18 05:25:09;;;;;;;3.40;3.00;;;;;;;21.53;55.77;100144.09;5120022;28;20032;-74
2023/09/18 05:27:35;;;;;;;4.55;2.88;;;;;;;21.59;55.61;100166.81;5111375;28;20082;-74
2023/09/18 05:30:01;;;;;;;2.83;2.55;;;;;;;21.46;56.01;100152.22;5109735;28;20020;-74
2023/09/18 05:32:26;;;;;;;3.20;2.90;;;;;;;21.43;56.05;100135.56;5115918;28;20079;-74
2023/09/18 05:34:51;;;;;;;2.90;2.58;;;;;;;21.55;55.90;100160.16;5114736;28;20043;-74
2023/09/18 05:37:17;;;;;;;3.80;3.03;;;;;;;21.62;56.01;100175.38;5123321;28;20028;-74
2023/09/18 05:39:42;;;;;;;3.25;2.92;;;;;;;21.69;55.75;100194.31;5113990;28;20031;-74
2023/09/18 05:42:07;;;;;;;3.00;2.70;;;;;;;21.25;56.11;100117.19;5130233;28;20029;-74
2023/09/18 05:44:33;;;;;;;4.32;3.05;;;;;;;21.75;55.94;100206.16;5126308;28;20010;-74
2023/09/18 05:46:58;;;;;;;4.07;3.53;;;;;;;21.63;55.83;100195.97;5120610;28;20061;-73
2023/09/18 05:49:24;;;;;;;3.33;3.03;;;;;;;21.23;56.00;100128.19;5117894;28;20012;-74
2023/09/18 05:51:49;;;;;;;3.42;2.88;;;;;;;21.69;56.05;100205.13;5125589;28;20047;-74
2023/09/18 05:54:14;;;;;;;3.33;2.72;;;;;;;21.53;55.83;100181.97;5109223;28;20026;-73
2023/09/18 05:56:39;;;;;;;3.90;3.00;;;;;;;21.54;56.28;100180.97;5114424;28;20052;-73
2023/09/18 05:59:05;;;;;;;3.80;3.25;;;;;;;21.74;56.21;100191.81;5115264;28;20107;-73
2023/09/18 06:01:32;;;;;;;4.15;3.55;;;;;;;21.75;55.96;100181.81;5110527;28;20027;-74
2023/09/18 06:03:58;;;;;;;4.10;3.15;;;;;;;21.74;55.90;100172.88;5123279;28;20034;-74
2023/09/18 06:06:24;;;;;;;3.03;2.70;;;;;;;21.55;55.98;100143.94;5114249;28;20020;-74
2023/09/18 06:08:50;;;;;;;3.58;3.28;;;;;;;21.52;55.99;100147.84;5110093;28;20040;-74
2023/09/18 06:11:15;;;;;;;2.83;2.60;;;;;;;21.45;56.05;100137.03;5105240;28;20058;-74
2023/09/18 06:13:40;;;;;;;3.88;2.90;;;;;;;21.59;55.98;100156.00;5113581;27;20019;-74
2023/09/18 06:16:08;;;;;;;4.60;3.33;;;;;;;21.68;55.86;100166.41;5109888;28;20030;-74
2023/09/18 06:18:33;;;;;;;3.35;3.05;;;;;;;21.49;55.91;100142.03;5112591;28;20039;-74
2023/09/18 06:20:58;;;;;;;4.15;3.20;;;;;;;21.62;55.97;100161.84;5111955;28;20053;-74
2023/09/18 06:23:24;;;;;;;3.90;3.25;;;;;;;21.66;56.08;100173.94;5109225;28;20076;-74
2023/09/18 06:25:55;;;;;;;3.20;2.67;;;;;;;21.48;56.23;100153.88;5110946;28;20028;-74
2023/09/18 06:28:20;;;;;;;3.10;2.70;;;;;;;21.73;56.21;100211.81;5112409;28;20027;-74
2023/09/18 06:30:45;;;;;;;6.07;3.60;;;;;;;21.43;56.16;100171.56;5109062;28;20044;-74
2023/09/18 06:33:12;;;;;;;4.18;3.28;;;;;;;21.21;55.98;100146.50;5117837;28;20087;-74
2023/09/18 06:35:38;;;;;;;4.68;3.08;;;;;;;21.63;56.22;100217.59;5111434;28;20046;-74
2023/09/18 06:38:05;;;;;;;3.65;2.92;;;;;;;21.60;56.04;100214.47;5106274;28;20023;-74
2023/09/18 06:40:30;;;;;;;3.30;3.00;;;;;;;21.36;56.17;100169.84;5115883;28;20022;-74
2023/09/18 06:43:00;;;;;;;3.42;3.05;;;;;;;21.66;56.26;100211.81;5111050;28;20031;-74
2023/09/18 06:45:25;;;;;;;3.20;2.90;;;;;;;21.69;56.25;100222.19;5109555;28;20028;-74
2023/09/18 06:47:51;;;;;;;2.92;2.60;;;;;;;21.60;56.04;100209.06;5116444;28;20062;-74
2023/09/18 06:50:18;;;;;;;4.13;3.17;;;;;;;21.75;56.11;100233.22;5103040;28;20551;-74
2023/09/18 06:52:43;;;;;;;3.90;3.25;;;;;;;21.76;56.40;100248.44;5111802;28;20480;-74
2023/09/18 06:55:09;;;;;;;5.13;3.22;;;;;;;21.50;56.43;100198.63;5114669;28;20032;-74
2023/09/18 06:57:34;;;;;;;3.80;2.80;;;;;;;21.51;56.29;100194.06;5109344;28;20015;-74
2023/09/18 06:59:59;;;;;;;3.00;2.70;;;;;;;21.69;56.17;100226.78;5113818;28;20035;-74
2023/09/18 07:02:25;;;;;;;3.05;2.78;;;;;;;21.76;56.17;100243.88;5114995;28;20076;-74
2023/09/18 07:04:50;;;;;;;4.00;2.90;;;;;;;21.54;55.51;100208.00;5102726;28;20532;-74
2023/09/18 07:07:15;;;;;;;3.28;2.95;;;;;;;21.51;56.26;100199.47;5116215;28;20024;-74
2023/09/18 07:09:41;;;;;;;3.15;2.78;;;;;;;21.54;56.43;100201.78;5116451;28;20094;-74
2023/09/18 07:12:09;;;;;;;3.13;2.65;;;;;;;21.46;56.14;100192.78;5088724;28;20028;-74
2023/09/18 07:14:35;;;;;;;3.33;2.65;;;;;;;21.76;56.21;100224.94;5119669;27;20094;-74
2023/09/18 07:17:01;;;;;;;3.60;3.10;;;;;;;21.60;55.95;100200.94;5114308;28;20492;-74
2023/09/18 07:19:26;;;;;;;3.85;3.35;;;;;;;21.49;56.13;100193.41;5107311;28;20028;-74
2023/09/18 07:21:51;;;;;;;3.00;2.70;;;;;;;21.55;56.30;100209.66;5119794;28;20034;-74
2023/09/18 07:24:17;;;;;;;3.45;3.10;;;;;;;21.73;56.10;100229.91;5112054;28;20024;-74
2023/09/18 07:26:45;;;;;;;3.63;3.33;;;;;;;21.57;56.35;100215.69;5122541;28;20028;-74
2023/09/18 07:29:10;;;;;;;3.30;2.95;;;;;;;21.77;56.00;100237.41;5117136;28;20027;-74
2023/09/18 07:31:35;;;;;;;4.63;3.10;;;;;;;21.77;56.24;100234.72;5108215;28;20767;-74
2023/09/18 07:34:00;;;;;;;2.92;2.63;;;;;;;21.66;56.29;100205.53;5107342;28;20043;-74
2023/09/18 07:36:26;;;;;;;2.80;2.55;;;;;;;21.77;56.37;100223.88;5114784;28;20087;-74
2023/09/18 07:38:51;;;;;;;3.28;2.92;;;;;;;21.71;56.28;100230.94;5108337;28;20054;-73
2023/09/18 07:41:17;;;;;;;3.10;2.80;;;;;;;21.64;56.15;100204.91;5112852;28;20023;-73
2023/09/18 07:43:42;;;;;;;2.92;2.63;;;;;;;21.79;56.06;100220.97;5111757;28;20032;-74
2023/09/18 07:46:07;;;;;;;3.60;3.17;;;;;;;21.58;56.16;100192.19;5098069;28;20020;-73
2023/09/18 07:48:33;;;;;;;3.58;3.22;;;;;;;21.66;56.10;100229.88;5093065;28;20031;-74
2023/09/18 07:50:58;;;;;;;4.05;3.10;;;;;;;21.66;56.22;100200.13;5104845;28;20028;-74
2023/09/18 07:53:23;;;;;;;2.70;2.50;;;;;;;21.80;56.03;100219.94;5108668;28;20024;-74
2023/09/18 07:55:56;;;;;;;3.05;2.63;;;;;;;21.74;56.08;100209.94;5116847;28;20018;-74
2023/09/18 07:58:21;;;;;;;3.42;2.80;;;;;;;21.81;55.91;100229.72;5109754;28;20434;-74
2023/09/18 08:00:48;;;;;;;3.85;2.80;;;;;;;21.63;56.12;100216.78;5111562;28;20027;-74
2023/09/18 08:03:13;;;;;;;3.17;2.72;;;;;;;21.80;56.13;100250.53;5111177;28;20023;-74
2023/09/18 08:05:39;;;;;;;3.28;2.88;;;;;;;21.30;55.74;100173.34;5109687;28;20024;-74
2023/09/18 08:08:05;;;;;;;4.47;3.08;;;;;;;21.59;55.91;100210.09;5112037;28;20023;-74
2023/09/18 08:10:30;;;;;;;3.97;2.83;;;;;;;21.81;56.07;100254.09;5111879;28;20028;-74
2023/09/18 08:12:56;;;;;;;3.67;3.25;;;;;;;21.80;55.87;100257.84;5110553;28;20031;-74
2023/09/18 08:15:21;;;;;;;3.22;2.80;;;;;;;21.74;55.70;100235.09;5115765;27;20049;-74
2023/09/18 08:17:48;;;;;;;2.85;2.53;;;;;;;21.54;56.05;100212.59;5112301;28;20100;-74
2023/09/18 08:20:14;;;;;;;3.22;2.90;;;;;;;21.58;56.05;100222.81;5101501;28;20023;-74
2023/09/18 08:22:41;;;;;;;3.42;3.13;;;;;;;21.80;56.06;100269.50;5114003;28;20024;-74
2023/09/18 08:25:13;;;;;;;3.13;2.58;;;;;;;21.53;55.90;100227.13;5103599;28;20028;-74
2023/09/18 08:27:43;;;;;;;2.92;2.63;;;;;;;21.58;55.79;100230.91;5110767;28;20036;-74
2023/09/18 08:30:10;;;;;;;3.03;2.50;;;;;;;21.66;55.76;100243.41;5101313;28;20020;-74
2023/09/18 08:32:37;;;;;;;3.53;2.75;;;;;;;21.57;55.88;100231.09;5112596;28;20047;-74
2023/09/18 08:35:02;;;;;;;3.45;2.65;;;;;;;21.71;56.39;100273.41;5111611;28;20030;-74
2023/09/18 08:37:28;;;;;;;3.42;2.30;;;;;;;21.72;56.09;100261.53;5114957;28;20086;-74
2023/09/18 08:39:53;;;;;;;4.10;2.45;;;;;;;21.79;56.08;100272.38;5112405;28;20061;-74
2023/09/18 08:42:20;;;;;;;2.85;2.55;;;;;;;21.56;56.08;100243.78;5099128;28;20019;-74
2023/09/18 08:44:48;;;;;;;3.05;2.75;;;;;;;21.56;56.16;100224.03;5115739;28;20032;-74
2023/09/18 08:47:14;;;;;;;2.70;2.50;;;;;;;21.54;56.19;100218.00;5111843;28;20052;-74
2023/09/18 08:49:40;;;;;;;3.08;2.78;;;;;;;21.80;56.07;100255.13;5112177;28;20023;-74
2023/09/18 08:52:05;;;;;;;2.63;2.42;;;;;;;21.79;56.05;100251.59;5115967;28;20049;-74
2023/09/18 08:54:31;;;;;;;2.70;2.50;;;;;;;21.70;56.30;100236.56;5105481;28;20027;-74
2023/09/18 08:56:56;;;;;;;2.53;2.25;;;;;;;21.81;56.17;100256.78;5118257;28;20027;-74
2023/09/18 08:59:22;;;;;;;3.10;2.75;;;;;;;21.37;56.20;100191.31;5116866;28;20020;-74
2023/09/18 09:01:48;;;;;;;3.15;2.75;;;;;;;21.81;56.19;100278.44;5108343;28;20038;-74
2023/09/18 09:04:13;;;;;;;2.67;2.40;;;;;;;21.81;56.24;100281.16;5116805;28;20024;-74
2023/09/18 09:06:38;;;;;;;2.70;2.47;;;;;;;21.74;56.09;100286.50;5105063;28;20024;-74
2023/09/18 09:09:04;;;;;;;3.22;2.92;;;;;;;21.79;56.40;100286.78;5108570;28;20063;-74
2023/09/18 09:11:29;;;;;;;2.30;2.10;;;;;;;21.58;56.10;100251.69;5107511;28;20036;-74
2023/09/18 09:14:18;;;;;;;2.65;2.42;;;;;;;21.54;56.23;100251.28;5118879;27;20132;-74
2023/09/18 09:16:50;;;;;;;2.60;2.40;;;;;;;21.58;56.32;100247.16;5114963;28;20492;-74
2023/09/18 09:19:17;;;;;;;3.10;2.63;;;;;;;21.75;56.34;100277.38;5122226;28;20031;-74
2023/09/18 09:21:43;;;;;;;3.00;2.40;;;;;;;21.82;56.34;100286.34;5097857;28;20023;-74
2023/09/18 09:24:15;;;;;;;2.53;2.33;;;;;;;21.83;56.04;100296.13;5115447;28;20070;-74
2023/09/18 09:26:41;;;;;;;3.25;2.90;;;;;;;21.71;56.23;100276.13;5116848;27;20020;-74
2023/09/18 09:29:18;;;;;;;2.40;2.20;;;;;;;21.70;56.06;100283.38;5108367;28;20024;-74
2023/09/18 09:31:44;;;;;;;2.53;2.20;;;;;;;21.84;56.45;100296.97;5124433;28;20091;-74
2023/09/18 09:34:09;;;;;;;3.05;2.25;;;;;;;21.46;56.18;100244.19;5113884;28;20066;-74
2023/09/18 09:36:35;;;;;;;2.88;2.58;;;;;;;21.55;56.40;100255.66;5111680;28;20024;-74
2023/09/18 09:39:01;;;;;;;2.90;2.17;;;;;;;21.84;56.13;100311.34;5121190;28;20867;-74
2023/09/18 09:41:30;;;;;;;2.40;2.20;;;;;;;21.85;56.33;100310.31;5112740;28;20022;-74
2023/09/18 09:43:56;;;;;;;;;;;;;;;21.85;56.14;100307.59;5110257;28;20476;-74
2023/09/18 09:46:21;;;;;;;2.50;2.30;;;;;;;21.62;56.23;100278.16;5116198;28;19930;-74
2023/09/18 09:49:04;;;;;;;2.17;1.98;;;;;;;21.84;56.21;100311.34;5110955;28;20031;-74
2023/09/18 09:51:30;;;;;;;2.55;2.30;;;;;;;21.72;56.15;100294.00;5121552;28;20023;-74
2023/09/18 09:53:58;;;;;;;3.03;2.22;;;;;;;21.55;56.34;100269.19;5116509;28;20099;-74
2023/09/18 09:56:43;;;;;;;2.72;2.40;;;;;;;21.52;56.46;100256.06;5101883;28;20092;-74
2023/09/18 09:59:10;;;;;;;2.50;2.30;;;;;;;21.84;56.35;100314.06;5110142;28;20020;-74
2023/09/18 10:01:35;;;;;;;3.85;2.83;;;;;;;21.61;56.23;100283.75;5097874;28;20047;-74
2023/09/18 10:04:17;;;;;;;2.50;2.30;;;;;;;21.85;56.20;100333.81;5132279;27;20080;-74
2023/09/18 10:06:44;;;;;;;2.72;2.22;;;;;;;21.86;56.44;100338.19;5106072;28;20028;-73
2023/09/18 10:09:10;;;;;;;2.55;2.33;;;;;;;21.71;56.18;100300.47;5106452;28;20044;-74
2023/09/18 10:11:44;;;;;;;3.22;2.22;;;;;;;21.87;56.30;100313.63;5103433;28;20465;-74
2023/09/18 10:14:16;;;;;;;2.58;2.38;;;;;;;21.67;56.19;100278.38;5113595;28;20027;-74
2023/09/18 10:16:47;;;;;;;2.42;2.22;;;;;;;21.62;55.98;100264.63;5107844;28;20103;-74
2023/09/18 10:19:33;;;;;;;2.25;1.90;;;;;;;21.87;56.31;100302.78;5110263;28;20028;-74
2023/09/18 10:22:32;;;;;;;2.58;2.28;;;;;;;21.89;56.20;100310.72;5108520;28;20516;-74
2023/09/18 10:25:09;;;;;;;2.80;2.42;;;;;;;21.89;56.26;100314.28;5102899;28;20048;-74
2023/09/18 10:27:38;;;;;;;2.60;2.40;;;;;;;21.69;56.28;100275.47;5105362;28;20073;-74
2023/09/18 10:30:10;;;;;;;2.75;2.30;;;;;;;21.65;56.16;100285.84;5103912;28;20357;-74
2023/09/18 10:32:39;;;;;;;2.50;2.30;;;;;;;21.58;56.31;100276.91;5110037;28;20035;-74
2023/09/18 10:35:05;;;;;;;;;;;;;;;21.93;56.49;100336.34;5122018;28;20020;-75
2023/09/18 10:37:31;;;;;;;2.45;2.25;;;;;;;21.74;56.23;100304.63;5118911;28;19918;-74
2023/09/18 10:39:58;;;;;;;2.47;2.28;;;;;;;21.75;56.48;100312.56;5102396;28;20028;-74
2023/09/18 10:42:24;;;;;;;2.42;2.20;;;;;;;21.81;56.60;100333.38;5113101;28;20111;-74
2023/09/18 10:44:50;;;;;;;2.45;2.25;;;;;;;21.94;56.59;100351.56;5106576;28;20032;-74
2023/09/18 10:47:16;;;;;;;2.13;1.73;;;;;;;21.94;56.23;100352.38;5119677;28;20051;-74
2023/09/18 10:49:41;;;;;;;2.95;2.45;;;;;;;21.78;56.28;100324.84;5119587;28;20019;-74
2023/09/18 10:52:12;;;;;;;2.55;2.00;;;;;;;21.94;56.34;100346.13;5106455;28;20032;-74
2023/09/18 10:54:39;;;;;;;2.25;2.05;;;;;;;21.71;56.52;100308.59;5114675;28;20020;-74
2023/09/18 10:57:04;;;;;;;3.03;2.20;;;;;;;21.71;56.39;100311.28;5118030;28;20016;-74
2023/09/18 10:59:31;;;;;;;2.20;2.00;;;;;;;21.95;56.26;100340.50;5107688;28;20428;-74
2023/09/18 11:01:56;;;;;;;1.90;1.80;;;;;;;21.95;56.47;100339.69;5117908;28;20058;-74
2023/09/18 11:04:23;;;;;;;2.00;1.80;;;;;;;21.80;56.62;100329.03;5109185;28;20093;-74
2023/09/18 11:06:54;;;;;;;2.33;1.98;;;;;;;21.95;56.37;100331.56;5108622;28;20055;-74
2023/09/18 11:09:26;;;;;;;2.08;1.85;;;;;;;21.88;56.33;100328.84;5114833;28;20048;-74
2023/09/18 11:11:58;;;;;;;2.10;1.85;;;;;;;21.95;56.61;100339.69;5121675;28;20024;-74
2023/09/18 11:14:42;;;;;;;2.63;2.15;;;;;;;21.96;56.40;100341.34;5114314;28;20023;-74
2023/09/18 11:17:30;;;;;;;1.80;1.70;;;;;;;21.84;56.39;100315.94;5121738;28;20033;-74
2023/09/18 11:20:22;;;;;;;2.33;2.10;;;;;;;22.00;56.29;100339.06;5106002;28;20113;-74
2023/09/18 11:23:15;;;;;;;2.88;2.30;;;;;;;21.99;56.36;100322.00;5115818;28;20043;-74
2023/09/18 11:25:42;;;;;;;2.42;2.08;;;;;;;22.00;56.48;100325.53;5120905;28;20020;-74